sensor_id;sensor_type;location;lat;lon;timestamp;P1;durP1;ratioP1;P2;durP2;ratioP2
32611;SDS011;19030;49.478;8.986;2023-04-03T00:01:14;6.90;;;2.97;;
32611;SDS011;19030;49.478;8.986;2023-04-03T00:03:15;7.20;;;3.03;;
32611;SDS011;19030;49.478;8.986;2023-04-03T00:05:17;7.60;;;3.28;;
32611;SDS011;19030;49.478;8.986;2023-04-03T00:07:17;4.80;;;2.55;;
32611;SDS011;19030;49.478;8.986;2023-04-03T00:09:18;5.70;;;3.08;;
32611;SDS011;19030;49.478;8.986;2023-04-03T00:11:18;7.72;;;2.90;;
32611;SDS011;19030;49.478;8.986;2023-04-03T00:13:20;8.90;;;3.53;;
32611;SDS011;19030;49.478;8.986;2023-04-03T00:15:21;8.30;;;3.50;;
32611;SDS011;19030;49.478;8.986;2023-04-03T00:17:21;5.38;;;3.17;;
32611;SDS011;19030;49.478;8.986;2023-04-03T00:19:22;6.68;;;3.20;;
32611;SDS011;19030;49.478;8.986;2023-04-03T00:21:22;10.40;;;3.22;;
32611;SDS011;19030;49.478;8.986;2023-04-03T00:23:23;7.82;;;3.88;;
32611;SDS011;19030;49.478;8.986;2023-04-03T00:25:24;6.72;;;3.00;;
32611;SDS011;19030;49.478;8.986;2023-04-03T00:27:25;8.57;;;3.45;;
32611;SDS011;19030;49.478;8.986;2023-04-03T00:29:25;4.80;;;3.20;;
32611;SDS011;19030;49.478;8.986;2023-04-03T00:31:26;7.63;;;3.17;;
32611;SDS011;19030;49.478;8.986;2023-04-03T00:33:27;9.75;;;3.47;;
32611;SDS011;19030;49.478;8.986;2023-04-03T00:35:27;7.20;;;3.45;;
32611;SDS011;19030;49.478;8.986;2023-04-03T00:37:28;5.88;;;3.55;;
32611;SDS011;19030;49.478;8.986;2023-04-03T00:39:29;7.28;;;3.30;;
32611;SDS011;19030;49.478;8.986;2023-04-03T00:41:29;4.82;;;2.92;;
32611;SDS011;19030;49.478;8.986;2023-04-03T00:43:30;7.25;;;3.42;;
32611;SDS011;19030;49.478;8.986;2023-04-03T00:45:37;6.65;;;3.40;;
32611;SDS011;19030;49.478;8.986;2023-04-03T00:47:40;7.03;;;3.17;;
32611;SDS011;19030;49.478;8.986;2023-04-03T00:49:41;6.20;;;3.28;;
32611;SDS011;19030;49.478;8.986;2023-04-03T00:51:43;6.65;;;3.25;;
32611;SDS011;19030;49.478;8.986;2023-04-03T00:53:46;7.10;;;3.85;;
32611;SDS011;19030;49.478;8.986;2023-04-03T00:55:55;6.93;;;3.13;;
32611;SDS011;19030;49.478;8.986;2023-04-03T00:57:56;7.88;;;3.70;;
32611;SDS011;19030;49.478;8.986;2023-04-03T00:59:59;6.22;;;2.80;;
32611;SDS011;19030;49.478;8.986;2023-04-03T01:02:05;7.97;;;3.63;;
32611;SDS011;19030;49.478;8.986;2023-04-03T01:04:24;6.35;;;3.42;;
32611;SDS011;19030;49.478;8.986;2023-04-03T01:06:32;6.03;;;3.28;;
32611;SDS011;19030;49.478;8.986;2023-04-03T01:08:42;13.32;;;7.97;;
32611;SDS011;19030;49.478;8.986;2023-04-03T01:10:43;7.50;;;4.60;;
32611;SDS011;19030;49.478;8.986;2023-04-03T01:12:45;25.05;;;12.82;;
32611;SDS011;19030;49.478;8.986;2023-04-03T01:14:51;14.65;;;6.93;;
32611;SDS011;19030;49.478;8.986;2023-04-03T01:16:53;8.80;;;4.32;;
32611;SDS011;19030;49.478;8.986;2023-04-03T01:18:54;10.15;;;4.30;;
32611;SDS011;19030;49.478;8.986;2023-04-03T01:22:59;7.47;;;3.58;;
32611;SDS011;19030;49.478;8.986;2023-04-03T01:25:10;5.32;;;3.20;;
32611;SDS011;19030;49.478;8.986;2023-04-03T01:27:11;4.75;;;3.00;;
32611;SDS011;19030;49.478;8.986;2023-04-03T01:29:12;6.47;;;3.17;;
32611;SDS011;19030;49.478;8.986;2023-04-03T01:31:15;5.68;;;2.97;;
32611;SDS011;19030;49.478;8.986;2023-04-03T01:33:27;8.45;;;3.22;;
32611;SDS011;19030;49.478;8.986;2023-04-03T01:35:28;7.63;;;3.28;;
32611;SDS011;19030;49.478;8.986;2023-04-03T01:37:29;6.25;;;3.25;;
32611;SDS011;19030;49.478;8.986;2023-04-03T01:39:29;7.53;;;3.80;;
32611;SDS011;19030;49.478;8.986;2023-04-03T01:41:30;6.07;;;3.72;;
32611;SDS011;19030;49.478;8.986;2023-04-03T01:43:39;7.10;;;3.30;;
32611;SDS011;19030;49.478;8.986;2023-04-03T01:45:40;8.23;;;3.10;;
32611;SDS011;19030;49.478;8.986;2023-04-03T01:47:40;6.70;;;3.13;;
32611;SDS011;19030;49.478;8.986;2023-04-03T01:49:41;5.95;;;3.47;;
32611;SDS011;19030;49.478;8.986;2023-04-03T01:51:42;7.40;;;3.50;;
32611;SDS011;19030;49.478;8.986;2023-04-03T01:53:43;5.97;;;3.42;;
32611;SDS011;19030;49.478;8.986;2023-04-03T01:55:44;5.05;;;3.00;;
32611;SDS011;19030;49.478;8.986;2023-04-03T01:57:44;7.20;;;3.53;;
32611;SDS011;19030;49.478;8.986;2023-04-03T01:59:45;7.95;;;3.47;;
32611;SDS011;19030;49.478;8.986;2023-04-03T02:01:46;5.00;;;3.00;;
32611;SDS011;19030;49.478;8.986;2023-04-03T02:03:47;6.78;;;3.70;;
32611;SDS011;19030;49.478;8.986;2023-04-03T02:05:48;6.25;;;3.40;;
32611;SDS011;19030;49.478;8.986;2023-04-03T02:07:50;6.00;;;3.20;;
32611;SDS011;19030;49.478;8.986;2023-04-03T02:09:50;7.90;;;3.83;;
32611;SDS011;19030;49.478;8.986;2023-04-03T02:11:51;5.53;;;3.00;;
32611;SDS011;19030;49.478;8.986;2023-04-03T02:13:51;6.75;;;3.40;;
32611;SDS011;19030;49.478;8.986;2023-04-03T02:15:52;6.18;;;3.15;;
32611;SDS011;19030;49.478;8.986;2023-04-03T02:17:52;8.40;;;3.50;;
32611;SDS011;19030;49.478;8.986;2023-04-03T02:19:54;6.47;;;3.67;;
32611;SDS011;19030;49.478;8.986;2023-04-03T02:21:54;6.55;;;3.53;;
32611;SDS011;19030;49.478;8.986;2023-04-03T02:23:55;6.55;;;3.28;;
32611;SDS011;19030;49.478;8.986;2023-04-03T02:26:04;10.10;;;3.70;;
32611;SDS011;19030;49.478;8.986;2023-04-03T02:28:09;6.28;;;3.15;;
32611;SDS011;19030;49.478;8.986;2023-04-03T02:30:10;9.15;;;3.15;;
32611;SDS011;19030;49.478;8.986;2023-04-03T02:32:11;6.13;;;3.33;;
32611;SDS011;19030;49.478;8.986;2023-04-03T02:34:13;7.97;;;3.40;;
32611;SDS011;19030;49.478;8.986;2023-04-03T02:36:14;6.38;;;3.17;;
32611;SDS011;19030;49.478;8.986;2023-04-03T02:38:17;7.43;;;3.55;;
32611;SDS011;19030;49.478;8.986;2023-04-03T02:40:18;9.10;;;4.07;;
32611;SDS011;19030;49.478;8.986;2023-04-03T02:42:19;5.97;;;3.45;;
32611;SDS011;19030;49.478;8.986;2023-04-03T02:44:20;6.72;;;3.75;;
32611;SDS011;19030;49.478;8.986;2023-04-03T02:46:20;9.38;;;3.85;;
32611;SDS011;19030;49.478;8.986;2023-04-03T02:48:21;6.85;;;3.35;;
32611;SDS011;19030;49.478;8.986;2023-04-03T02:50:22;6.43;;;3.55;;
32611;SDS011;19030;49.478;8.986;2023-04-03T02:52:23;6.60;;;3.45;;
32611;SDS011;19030;49.478;8.986;2023-04-03T02:54:25;5.95;;;3.53;;
32611;SDS011;19030;49.478;8.986;2023-04-03T02:56:29;8.63;;;3.67;;
32611;SDS011;19030;49.478;8.986;2023-04-03T02:58:30;6.97;;;3.33;;
32611;SDS011;19030;49.478;8.986;2023-04-03T03:00:32;5.63;;;3.33;;
32611;SDS011;19030;49.478;8.986;2023-04-03T03:02:33;10.63;;;3.55;;
32611;SDS011;19030;49.478;8.986;2023-04-03T03:04:34;6.82;;;3.28;;
32611;SDS011;19030;49.478;8.986;2023-04-03T03:06:34;6.75;;;3.20;;
32611;SDS011;19030;49.478;8.986;2023-04-03T03:08:35;7.80;;;3.42;;
32611;SDS011;19030;49.478;8.986;2023-04-03T03:10:36;5.72;;;3.00;;
32611;SDS011;19030;49.478;8.986;2023-04-03T03:12:37;6.03;;;3.50;;
32611;SDS011;19030;49.478;8.986;2023-04-03T03:14:37;5.53;;;3.08;;
32611;SDS011;19030;49.478;8.986;2023-04-03T03:16:38;6.53;;;3.05;;
32611;SDS011;19030;49.478;8.986;2023-04-03T03:18:38;6.38;;;3.10;;
32611;SDS011;19030;49.478;8.986;2023-04-03T03:20:39;6.57;;;3.40;;
32611;SDS011;19030;49.478;8.986;2023-04-03T03:22:39;6.97;;;3.58;;
32611;SDS011;19030;49.478;8.986;2023-04-03T03:24:40;6.88;;;3.53;;
32611;SDS011;19030;49.478;8.986;2023-04-03T03:26:41;9.63;;;3.42;;
32611;SDS011;19030;49.478;8.986;2023-04-03T03:28:42;6.00;;;3.47;;
32611;SDS011;19030;49.478;8.986;2023-04-03T03:30:42;5.97;;;3.17;;
32611;SDS011;19030;49.478;8.986;2023-04-03T03:32:44;5.10;;;2.97;;
32611;SDS011;19030;49.478;8.986;2023-04-03T03:34:45;6.38;;;3.55;;
32611;SDS011;19030;49.478;8.986;2023-04-03T03:36:45;8.18;;;3.60;;
32611;SDS011;19030;49.478;8.986;2023-04-03T03:38:46;8.55;;;3.90;;
32611;SDS011;19030;49.478;8.986;2023-04-03T03:40:47;7.28;;;3.58;;
32611;SDS011;19030;49.478;8.986;2023-04-03T03:42:50;7.80;;;3.42;;
32611;SDS011;19030;49.478;8.986;2023-04-03T03:44:50;6.30;;;3.50;;
32611;SDS011;19030;49.478;8.986;2023-04-03T03:46:53;9.38;;;4.18;;
32611;SDS011;19030;49.478;8.986;2023-04-03T03:48:54;10.77;;;3.55;;
32611;SDS011;19030;49.478;8.986;2023-04-03T03:50:54;7.80;;;3.30;;
32611;SDS011;19030;49.478;8.986;2023-04-03T03:52:59;7.72;;;3.97;;
32611;SDS011;19030;49.478;8.986;2023-04-03T03:55:00;5.35;;;3.28;;
32611;SDS011;19030;49.478;8.986;2023-04-03T03:57:00;9.82;;;3.67;;
32611;SDS011;19030;49.478;8.986;2023-04-03T03:59:04;6.70;;;3.45;;
32611;SDS011;19030;49.478;8.986;2023-04-03T04:01:06;7.45;;;4.10;;
32611;SDS011;19030;49.478;8.986;2023-04-03T04:03:13;5.47;;;3.17;;
32611;SDS011;19030;49.478;8.986;2023-04-03T04:05:14;12.95;;;4.35;;
32611;SDS011;19030;49.478;8.986;2023-04-03T04:07:15;11.23;;;2.95;;
32611;SDS011;19030;49.478;8.986;2023-04-03T04:09:16;7.05;;;3.40;;
32611;SDS011;19030;49.478;8.986;2023-04-03T04:11:16;7.82;;;3.65;;
32611;SDS011;19030;49.478;8.986;2023-04-03T04:13:18;8.75;;;3.45;;
32611;SDS011;19030;49.478;8.986;2023-04-03T04:15:19;11.15;;;3.85;;
32611;SDS011;19030;49.478;8.986;2023-04-03T04:17:21;8.15;;;4.05;;
32611;SDS011;19030;49.478;8.986;2023-04-03T04:19:23;10.45;;;3.30;;
32611;SDS011;19030;49.478;8.986;2023-04-03T04:21:23;7.78;;;3.72;;
32611;SDS011;19030;49.478;8.986;2023-04-03T04:23:26;6.50;;;3.28;;
32611;SDS011;19030;49.478;8.986;2023-04-03T04:25:27;8.70;;;3.53;;
32611;SDS011;19030;49.478;8.986;2023-04-03T04:27:27;6.97;;;3.45;;
32611;SDS011;19030;49.478;8.986;2023-04-03T04:29:28;6.65;;;3.55;;
32611;SDS011;19030;49.478;8.986;2023-04-03T04:31:29;6.53;;;4.07;;
32611;SDS011;19030;49.478;8.986;2023-04-03T04:33:30;8.68;;;3.80;;
32611;SDS011;19030;49.478;8.986;2023-04-03T04:35:33;6.18;;;3.47;;
32611;SDS011;19030;49.478;8.986;2023-04-03T04:37:35;6.15;;;3.65;;
32611;SDS011;19030;49.478;8.986;2023-04-03T04:39:36;7.38;;;3.47;;
32611;SDS011;19030;49.478;8.986;2023-04-03T04:41:37;9.07;;;3.42;;
32611;SDS011;19030;49.478;8.986;2023-04-03T04:43:39;7.18;;;3.38;;
32611;SDS011;19030;49.478;8.986;2023-04-03T04:45:40;7.60;;;3.22;;
32611;SDS011;19030;49.478;8.986;2023-04-03T04:47:42;6.40;;;3.60;;
32611;SDS011;19030;49.478;8.986;2023-04-03T04:49:43;6.15;;;3.25;;
32611;SDS011;19030;49.478;8.986;2023-04-03T04:57:31;6.75;;;3.45;;
32611;SDS011;19030;49.478;8.986;2023-04-03T04:59:33;7.95;;;3.40;;
32611;SDS011;19030;49.478;8.986;2023-04-03T05:01:37;7.85;;;3.40;;
32611;SDS011;19030;49.478;8.986;2023-04-03T05:03:45;6.10;;;3.33;;
32611;SDS011;19030;49.478;8.986;2023-04-03T05:05:47;7.65;;;3.75;;
32611;SDS011;19030;49.478;8.986;2023-04-03T05:07:48;5.50;;;3.38;;
32611;SDS011;19030;49.478;8.986;2023-04-03T05:09:49;7.63;;;4.00;;
32611;SDS011;19030;49.478;8.986;2023-04-03T05:11:51;6.30;;;3.97;;
32611;SDS011;19030;49.478;8.986;2023-04-03T05:13:55;6.68;;;3.63;;
32611;SDS011;19030;49.478;8.986;2023-04-03T05:15:57;7.03;;;3.80;;
32611;SDS011;19030;49.478;8.986;2023-04-03T05:17:58;6.57;;;3.30;;
32611;SDS011;19030;49.478;8.986;2023-04-03T05:19:59;6.57;;;3.42;;
32611;SDS011;19030;49.478;8.986;2023-04-03T05:22:01;8.30;;;3.67;;
32611;SDS011;19030;49.478;8.986;2023-04-03T05:24:03;6.97;;;3.67;;
32611;SDS011;19030;49.478;8.986;2023-04-03T05:26:07;9.60;;;3.80;;
32611;SDS011;19030;49.478;8.986;2023-04-03T05:28:08;8.25;;;5.15;;
32611;SDS011;19030;49.478;8.986;2023-04-03T05:30:09;7.93;;;3.47;;
32611;SDS011;19030;49.478;8.986;2023-04-03T05:32:12;7.60;;;3.75;;
32611;SDS011;19030;49.478;8.986;2023-04-03T05:34:13;5.85;;;3.30;;
32611;SDS011;19030;49.478;8.986;2023-04-03T05:36:15;5.90;;;3.28;;
32611;SDS011;19030;49.478;8.986;2023-04-03T05:38:19;7.80;;;3.90;;
32611;SDS011;19030;49.478;8.986;2023-04-03T05:40:20;9.27;;;3.67;;
32611;SDS011;19030;49.478;8.986;2023-04-03T05:42:25;6.53;;;3.80;;
32611;SDS011;19030;49.478;8.986;2023-04-03T05:44:26;8.30;;;3.40;;
32611;SDS011;19030;49.478;8.986;2023-04-03T05:46:28;7.65;;;3.25;;
32611;SDS011;19030;49.478;8.986;2023-04-03T05:48:31;10.00;;;4.13;;
32611;SDS011;19030;49.478;8.986;2023-04-03T05:50:32;5.78;;;2.95;;
32611;SDS011;19030;49.478;8.986;2023-04-03T05:52:33;8.98;;;3.72;;
32611;SDS011;19030;49.478;8.986;2023-04-03T05:54:36;7.10;;;3.60;;
32611;SDS011;19030;49.478;8.986;2023-04-03T05:56:44;6.90;;;3.85;;
32611;SDS011;19030;49.478;8.986;2023-04-03T05:58:45;6.50;;;3.67;;
32611;SDS011;19030;49.478;8.986;2023-04-03T06:00:46;5.85;;;3.15;;
32611;SDS011;19030;49.478;8.986;2023-04-03T06:02:47;9.43;;;3.97;;
32611;SDS011;19030;49.478;8.986;2023-04-03T06:04:52;7.07;;;3.40;;
32611;SDS011;19030;49.478;8.986;2023-04-03T06:06:54;6.80;;;3.47;;
32611;SDS011;19030;49.478;8.986;2023-04-03T06:08:59;5.72;;;3.28;;
32611;SDS011;19030;49.478;8.986;2023-04-03T06:10:59;15.48;;;3.35;;
32611;SDS011;19030;49.478;8.986;2023-04-03T06:13:01;6.85;;;3.60;;
32611;SDS011;19030;49.478;8.986;2023-04-03T06:15:02;6.32;;;3.28;;
32611;SDS011;19030;49.478;8.986;2023-04-03T06:17:03;9.80;;;3.15;;
32611;SDS011;19030;49.478;8.986;2023-04-03T06:19:05;5.82;;;3.20;;
32611;SDS011;19030;49.478;8.986;2023-04-03T06:21:06;7.10;;;3.38;;
32611;SDS011;19030;49.478;8.986;2023-04-03T06:23:07;6.68;;;4.13;;
32611;SDS011;19030;49.478;8.986;2023-04-03T06:25:08;7.75;;;3.67;;
32611;SDS011;19030;49.478;8.986;2023-04-03T06:27:10;6.53;;;3.58;;
32611;SDS011;19030;49.478;8.986;2023-04-03T06:29:11;6.15;;;3.50;;
32611;SDS011;19030;49.478;8.986;2023-04-03T06:31:11;6.50;;;3.30;;
32611;SDS011;19030;49.478;8.986;2023-04-03T06:33:12;7.97;;;3.80;;
32611;SDS011;19030;49.478;8.986;2023-04-03T06:35:13;6.32;;;3.70;;
32611;SDS011;19030;49.478;8.986;2023-04-03T06:37:17;7.00;;;3.33;;
32611;SDS011;19030;49.478;8.986;2023-04-03T06:39:20;6.22;;;2.97;;
32611;SDS011;19030;49.478;8.986;2023-04-03T06:41:24;6.35;;;3.10;;
32611;SDS011;19030;49.478;8.986;2023-04-03T06:43:26;6.32;;;3.45;;
32611;SDS011;19030;49.478;8.986;2023-04-03T06:45:26;6.07;;;3.30;;
32611;SDS011;19030;49.478;8.986;2023-04-03T06:47:27;7.47;;;3.75;;
32611;SDS011;19030;49.478;8.986;2023-04-03T06:49:28;5.55;;;2.95;;
32611;SDS011;19030;49.478;8.986;2023-04-03T06:51:29;8.18;;;3.67;;
32611;SDS011;19030;49.478;8.986;2023-04-03T06:53:30;8.43;;;4.00;;
32611;SDS011;19030;49.478;8.986;2023-04-03T06:55:31;7.45;;;3.70;;
32611;SDS011;19030;49.478;8.986;2023-04-03T06:57:31;9.40;;;4.25;;
32611;SDS011;19030;49.478;8.986;2023-04-03T06:59:32;8.25;;;4.82;;
32611;SDS011;19030;49.478;8.986;2023-04-03T07:01:35;6.72;;;3.72;;
32611;SDS011;19030;49.478;8.986;2023-04-03T07:03:36;7.90;;;3.53;;
32611;SDS011;19030;49.478;8.986;2023-04-03T07:05:37;7.88;;;3.22;;
32611;SDS011;19030;49.478;8.986;2023-04-03T07:07:37;9.35;;;4.82;;
32611;SDS011;19030;49.478;8.986;2023-04-03T07:09:38;8.00;;;3.42;;
32611;SDS011;19030;49.478;8.986;2023-04-03T07:11:38;12.20;;;4.35;;
32611;SDS011;19030;49.478;8.986;2023-04-03T07:13:39;8.40;;;3.50;;
32611;SDS011;19030;49.478;8.986;2023-04-03T07:15:40;12.30;;;4.47;;
32611;SDS011;19030;49.478;8.986;2023-04-03T07:17:41;8.80;;;4.70;;
32611;SDS011;19030;49.478;8.986;2023-04-03T07:19:41;9.73;;;4.10;;
32611;SDS011;19030;49.478;8.986;2023-04-03T07:21:42;9.50;;;3.88;;
32611;SDS011;19030;49.478;8.986;2023-04-03T07:23:43;8.98;;;3.92;;
32611;SDS011;19030;49.478;8.986;2023-04-03T07:25:47;10.30;;;3.83;;
32611;SDS011;19030;49.478;8.986;2023-04-03T07:27:49;10.82;;;5.03;;
32611;SDS011;19030;49.478;8.986;2023-04-03T07:29:50;9.30;;;3.67;;
32611;SDS011;19030;49.478;8.986;2023-04-03T07:31:51;9.35;;;3.80;;
32611;SDS011;19030;49.478;8.986;2023-04-03T07:33:52;7.43;;;3.60;;
32611;SDS011;19030;49.478;8.986;2023-04-03T07:35:53;7.22;;;3.45;;
32611;SDS011;19030;49.478;8.986;2023-04-03T07:37:54;7.65;;;3.60;;
32611;SDS011;19030;49.478;8.986;2023-04-03T07:39:55;6.25;;;3.20;;
32611;SDS011;19030;49.478;8.986;2023-04-03T07:41:57;8.65;;;3.63;;
32611;SDS011;19030;49.478;8.986;2023-04-03T07:43:57;7.05;;;3.40;;
32611;SDS011;19030;49.478;8.986;2023-04-03T07:45:58;9.93;;;3.30;;
32611;SDS011;19030;49.478;8.986;2023-04-03T07:47:58;10.27;;;3.60;;
32611;SDS011;19030;49.478;8.986;2023-04-03T07:50:00;7.07;;;3.53;;
32611;SDS011;19030;49.478;8.986;2023-04-03T07:52:00;6.18;;;3.65;;
32611;SDS011;19030;49.478;8.986;2023-04-03T07:54:01;6.70;;;3.15;;
32611;SDS011;19030;49.478;8.986;2023-04-03T07:56:01;7.43;;;3.08;;
32611;SDS011;19030;49.478;8.986;2023-04-03T07:58:02;6.90;;;3.50;;
32611;SDS011;19030;49.478;8.986;2023-04-03T08:00:03;6.63;;;3.15;;
32611;SDS011;19030;49.478;8.986;2023-04-03T08:02:12;6.55;;;3.28;;
32611;SDS011;19030;49.478;8.986;2023-04-03T08:04:12;6.90;;;2.83;;
32611;SDS011;19030;49.478;8.986;2023-04-03T08:06:13;11.30;;;3.53;;
32611;SDS011;19030;49.478;8.986;2023-04-03T08:08:16;7.15;;;2.97;;
32611;SDS011;19030;49.478;8.986;2023-04-03T08:10:18;6.15;;;3.13;;
32611;SDS011;19030;49.478;8.986;2023-04-03T08:12:19;7.57;;;3.55;;
32611;SDS011;19030;49.478;8.986;2023-04-03T08:14:20;4.40;;;2.55;;
32611;SDS011;19030;49.478;8.986;2023-04-03T08:16:21;6.03;;;2.90;;
32611;SDS011;19030;49.478;8.986;2023-04-03T08:18:23;7.78;;;2.72;;
32611;SDS011;19030;49.478;8.986;2023-04-03T08:20:24;7.40;;;3.10;;
32611;SDS011;19030;49.478;8.986;2023-04-03T08:22:25;5.32;;;2.67;;
32611;SDS011;19030;49.478;8.986;2023-04-03T08:24:26;6.25;;;3.17;;
32611;SDS011;19030;49.478;8.986;2023-04-03T08:26:27;6.93;;;3.10;;
32611;SDS011;19030;49.478;8.986;2023-04-03T08:28:27;4.95;;;2.70;;
32611;SDS011;19030;49.478;8.986;2023-04-03T08:30:28;6.95;;;3.15;;
32611;SDS011;19030;49.478;8.986;2023-04-03T08:32:29;6.43;;;2.88;;
32611;SDS011;19030;49.478;8.986;2023-04-03T08:34:29;5.28;;;2.80;;
32611;SDS011;19030;49.478;8.986;2023-04-03T08:36:30;6.95;;;3.13;;
32611;SDS011;19030;49.478;8.986;2023-04-03T08:38:31;5.55;;;2.90;;
32611;SDS011;19030;49.478;8.986;2023-04-03T08:40:32;5.38;;;2.70;;
32611;SDS011;19030;49.478;8.986;2023-04-03T08:42:48;4.65;;;2.40;;
32611;SDS011;19030;49.478;8.986;2023-04-03T08:44:56;7.95;;;3.15;;
32611;SDS011;19030;49.478;8.986;2023-04-03T08:49:26;7.43;;;2.72;;
32611;SDS011;19030;49.478;8.986;2023-04-03T08:53:33;4.35;;;2.40;;
32611;SDS011;19030;49.478;8.986;2023-04-03T08:55:41;5.43;;;2.70;;
32611;SDS011;19030;49.478;8.986;2023-04-03T08:57:45;3.58;;;2.60;;
32611;SDS011;19030;49.478;8.986;2023-04-03T08:59:48;6.07;;;2.67;;
32611;SDS011;19030;49.478;8.986;2023-04-03T09:01:49;7.03;;;3.00;;
32611;SDS011;19030;49.478;8.986;2023-04-03T09:03:51;5.78;;;3.13;;
32611;SDS011;19030;49.478;8.986;2023-04-03T09:10:38;6.50;;;3.50;;
32611;SDS011;19030;49.478;8.986;2023-04-03T09:12:42;6.85;;;3.45;;
32611;SDS011;19030;49.478;8.986;2023-04-03T09:14:57;4.53;;;3.10;;
32611;SDS011;19030;49.478;8.986;2023-04-03T09:21:37;7.25;;;3.42;;
32611;SDS011;19030;49.478;8.986;2023-04-03T09:23:43;8.90;;;3.53;;
32611;SDS011;19030;49.478;8.986;2023-04-03T09:25:53;5.97;;;3.25;;
32611;SDS011;19030;49.478;8.986;2023-04-03T09:28:01;10.48;;;9.50;;
32611;SDS011;19030;49.478;8.986;2023-04-03T09:30:02;10.25;;;9.20;;
32611;SDS011;19030;49.478;8.986;2023-04-03T09:32:12;10.52;;;9.63;;
32611;SDS011;19030;49.478;8.986;2023-04-03T09:34:36;11.80;;;10.65;;
32611;SDS011;19030;49.478;8.986;2023-04-03T09:36:38;11.85;;;10.68;;
32611;SDS011;19030;49.478;8.986;2023-04-03T09:38:40;11.73;;;9.80;;
32611;SDS011;19030;49.478;8.986;2023-04-03T09:40:43;10.90;;;9.10;;
32611;SDS011;19030;49.478;8.986;2023-04-03T09:42:45;11.05;;;8.55;;
32611;SDS011;19030;49.478;8.986;2023-04-03T09:44:56;10.88;;;9.80;;
32611;SDS011;19030;49.478;8.986;2023-04-03T09:46:59;9.88;;;8.90;;
32611;SDS011;19030;49.478;8.986;2023-04-03T09:49:17;11.05;;;9.95;;
32611;SDS011;19030;49.478;8.986;2023-04-03T09:51:19;9.55;;;8.63;;
32611;SDS011;19030;49.478;8.986;2023-04-03T09:53:30;12.13;;;10.95;;
32611;SDS011;19030;49.478;8.986;2023-04-03T09:55:41;14.10;;;12.80;;
32611;SDS011;19030;49.478;8.986;2023-04-03T09:57:46;13.07;;;11.77;;
32611;SDS011;19030;49.478;8.986;2023-04-03T09:59:58;13.27;;;12.13;;
32611;SDS011;19030;49.478;8.986;2023-04-03T10:02:04;5.43;;;3.08;;
32611;SDS011;19030;49.478;8.986;2023-04-03T10:04:24;8.18;;;3.28;;
32611;SDS011;19030;49.478;8.986;2023-04-03T10:06:25;6.07;;;2.60;;
32611;SDS011;19030;49.478;8.986;2023-04-03T10:08:27;4.43;;;2.75;;
32611;SDS011;19030;49.478;8.986;2023-04-03T10:10:30;6.80;;;3.20;;
32611;SDS011;19030;49.478;8.986;2023-04-03T10:12:30;4.28;;;2.58;;
32611;SDS011;19030;49.478;8.986;2023-04-03T10:14:38;7.13;;;2.72;;
32611;SDS011;19030;49.478;8.986;2023-04-03T10:16:41;7.80;;;2.60;;
32611;SDS011;19030;49.478;8.986;2023-04-03T10:21:29;5.50;;;2.92;;
32611;SDS011;19030;49.478;8.986;2023-04-03T10:23:43;7.20;;;3.00;;
32611;SDS011;19030;49.478;8.986;2023-04-03T10:25:54;4.78;;;2.65;;
32611;SDS011;19030;49.478;8.986;2023-04-03T10:34:47;10.65;;;3.25;;
32611;SDS011;19030;49.478;8.986;2023-04-03T10:37:24;4.70;;;2.25;;
32611;SDS011;19030;49.478;8.986;2023-04-03T10:39:39;6.60;;;2.67;;
32611;SDS011;19030;49.478;8.986;2023-04-03T10:44:42;7.18;;;2.67;;
32611;SDS011;19030;49.478;8.986;2023-04-03T10:47:18;6.68;;;2.58;;
32611;SDS011;19030;49.478;8.986;2023-04-03T10:52:01;6.45;;;2.95;;
32611;SDS011;19030;49.478;8.986;2023-04-03T10:54:04;7.32;;;2.80;;
32611;SDS011;19030;49.478;8.986;2023-04-03T10:58:21;6.47;;;2.60;;
32611;SDS011;19030;49.478;8.986;2023-04-03T11:00:50;8.43;;;2.85;;
32611;SDS011;19030;49.478;8.986;2023-04-03T11:02:56;7.18;;;2.67;;
32611;SDS011;19030;49.478;8.986;2023-04-03T11:05:01;4.88;;;2.55;;
32611;SDS011;19030;49.478;8.986;2023-04-03T11:07:20;5.70;;;2.65;;
32611;SDS011;19030;49.478;8.986;2023-04-03T11:09:27;9.85;;;3.10;;
32611;SDS011;19030;49.478;8.986;2023-04-03T11:11:32;7.32;;;2.85;;
32611;SDS011;19030;49.478;8.986;2023-04-03T11:13:40;8.02;;;2.70;;
32611;SDS011;19030;49.478;8.986;2023-04-03T11:15:45;7.82;;;2.75;;
32611;SDS011;19030;49.478;8.986;2023-04-03T11:17:55;5.85;;;2.30;;
32611;SDS011;19030;49.478;8.986;2023-04-03T11:20:10;5.13;;;2.50;;
32611;SDS011;19030;49.478;8.986;2023-04-03T11:22:30;5.80;;;2.50;;
32611;SDS011;19030;49.478;8.986;2023-04-03T11:24:34;4.97;;;3.08;;
32611;SDS011;19030;49.478;8.986;2023-04-03T11:26:38;6.72;;;3.17;;
32611;SDS011;19030;49.478;8.986;2023-04-03T11:28:42;7.07;;;2.90;;
32611;SDS011;19030;49.478;8.986;2023-04-03T11:30:49;5.97;;;2.78;;
32611;SDS011;19030;49.478;8.986;2023-04-03T11:35:01;6.47;;;3.42;;
32611;SDS011;19030;49.478;8.986;2023-04-03T11:37:06;6.43;;;2.97;;
32611;SDS011;19030;49.478;8.986;2023-04-03T11:39:33;5.43;;;2.33;;
32611;SDS011;19030;49.478;8.986;2023-04-03T11:41:38;7.22;;;3.17;;
32611;SDS011;19030;49.478;8.986;2023-04-03T11:43:42;4.57;;;2.63;;
32611;SDS011;19030;49.478;8.986;2023-04-03T11:46:01;8.15;;;3.28;;
32611;SDS011;19030;49.478;8.986;2023-04-03T11:48:42;5.32;;;2.75;;
32611;SDS011;19030;49.478;8.986;2023-04-03T11:50:43;7.07;;;2.78;;
32611;SDS011;19030;49.478;8.986;2023-04-03T11:54:49;7.05;;;3.22;;
32611;SDS011;19030;49.478;8.986;2023-04-03T11:56:50;5.45;;;2.70;;
32611;SDS011;19030;49.478;8.986;2023-04-03T12:01:10;5.65;;;2.80;;
32611;SDS011;19030;49.478;8.986;2023-04-03T12:05:42;5.88;;;2.88;;
32611;SDS011;19030;49.478;8.986;2023-04-03T12:07:42;4.65;;;2.97;;
32611;SDS011;19030;49.478;8.986;2023-04-03T12:11:44;4.75;;;2.53;;
32611;SDS011;19030;49.478;8.986;2023-04-03T12:15:57;5.20;;;3.00;;
32611;SDS011;19030;49.478;8.986;2023-04-03T12:18:02;6.40;;;2.67;;
32611;SDS011;19030;49.478;8.986;2023-04-03T12:20:59;5.40;;;2.92;;
32611;SDS011;19030;49.478;8.986;2023-04-03T12:25:41;10.80;;;4.15;;
32611;SDS011;19030;49.478;8.986;2023-04-03T12:27:50;4.82;;;2.60;;
32611;SDS011;19030;49.478;8.986;2023-04-03T12:29:55;5.97;;;2.65;;
32611;SDS011;19030;49.478;8.986;2023-04-03T12:34:26;7.03;;;2.80;;
32611;SDS011;19030;49.478;8.986;2023-04-03T12:36:45;6.15;;;2.83;;
32611;SDS011;19030;49.478;8.986;2023-04-03T12:39:13;7.10;;;3.00;;
32611;SDS011;19030;49.478;8.986;2023-04-03T12:41:27;7.38;;;3.28;;
32611;SDS011;19030;49.478;8.986;2023-04-03T12:47:55;12.85;;;11.75;;
32611;SDS011;19030;49.478;8.986;2023-04-03T12:49:56;13.57;;;12.40;;
32611;SDS011;19030;49.478;8.986;2023-04-03T12:51:59;11.30;;;10.20;;
32611;SDS011;19030;49.478;8.986;2023-04-03T12:54:04;9.98;;;8.95;;
32611;SDS011;19030;49.478;8.986;2023-04-03T12:56:26;8.82;;;7.93;;
32611;SDS011;19030;49.478;8.986;2023-04-03T12:58:31;8.55;;;7.75;;
32611;SDS011;19030;49.478;8.986;2023-04-03T13:00:34;13.88;;;12.68;;
32611;SDS011;19030;49.478;8.986;2023-04-03T13:02:35;12.15;;;10.98;;
32611;SDS011;19030;49.478;8.986;2023-04-03T13:04:37;6.25;;;3.20;;
32611;SDS011;19030;49.478;8.986;2023-04-03T13:06:41;11.63;;;10.50;;
32611;SDS011;19030;49.478;8.986;2023-04-03T13:08:53;13.63;;;12.10;;
32611;SDS011;19030;49.478;8.986;2023-04-03T13:10:59;14.10;;;12.90;;
32611;SDS011;19030;49.478;8.986;2023-04-03T13:13:07;10.80;;;9.70;;
32611;SDS011;19030;49.478;8.986;2023-04-03T13:15:13;10.15;;;9.25;;
32611;SDS011;19030;49.478;8.986;2023-04-03T13:17:26;15.55;;;11.85;;
32611;SDS011;19030;49.478;8.986;2023-04-03T13:19:27;11.43;;;9.88;;
32611;SDS011;19030;49.478;8.986;2023-04-03T13:21:28;10.70;;;9.70;;
32611;SDS011;19030;49.478;8.986;2023-04-03T13:23:33;8.77;;;7.85;;
32611;SDS011;19030;49.478;8.986;2023-04-03T13:25:39;7.57;;;5.28;;